Terminal Aerodrome Forecast
Issued by NWS Sterling, VA

Current Version | Previous Version | Graphics & Text | Print | Product List | Glossary On
Versions: 1 2 3 4 5 6 7 8 9 10 11 12 13 14 15 16 17 18 19 20 21 22 23 24
000
FTUS41 KLWX 211619 AAC
TAFDCA
TAF AMD
KDCA 211619Z 2116/2212 05008KT 4SM -RA SCT009 OVC012
      TEMPO 2116/2118 2SM -RA BR BKN009
     FM212000 02006KT P6SM -RA BKN015
     FM220200 35005KT P6SM BKN035
     FM220500 31007KT P6SM SCT080=

USA.gov is the U.S. government's official web portal to all federal, state and local government web resources and services.